Time;durP1;ratioP1;P1;durP2;ratioP2;P2;SDS_P1;SDS_P2;PMS_P1;PMS_P2;Temp;Humidity;BMP_temperature;BMP_pressure;BME280_temperature;BME280_humidity;BME280_pressure;Samples;Min_cycle;Max_cycle;Signal;HPM_P1;HPM_P2
2022/06/23 00:00:31;;;;;;;18.92;2.60;;;;;;;14.03;57.85;98980.88;5063537;28;20052;-68
2022/06/23 00:03:00;;;;;;;9.10;2.35;;;;;;;13.98;57.86;98981.03;5061881;28;20055;-68
2022/06/23 00:05:33;;;;;;;9.38;2.35;;;;;;;14.03;57.68;98994.59;5060106;28;20501;-69
2022/06/23 00:08:00;;;;;;;13.82;2.75;;;;;;;13.97;58.09;98993.16;5060883;28;20045;-68
2022/06/23 00:10:33;;;;;;;11.85;2.42;;;;;;;13.95;58.26;98989.09;5062198;28;20474;-68
2022/06/23 00:12:59;;;;;;;8.63;2.33;;;;;;;13.92;58.36;98989.72;5061563;28;20048;-68
2022/06/23 00:15:35;;;;;;;4.75;1.90;;;;;;;13.89;58.56;98986.50;5059165;28;20433;-68
2022/06/23 00:18:03;;;;;;;10.20;2.42;;;;;;;13.86;58.51;98992.63;5061443;28;20056;-69
2022/06/23 00:20:37;;;;;;;9.60;2.55;;;;;;;13.83;58.47;98992.44;5062270;28;20055;-69
2022/06/23 00:23:10;;;;;;;14.70;2.30;;;;;;;13.81;58.04;98998.22;5064197;28;20064;-68
2022/06/23 00:25:45;;;;;;;8.02;2.17;;;;;;;13.78;58.28;98989.84;5062378;28;20534;-68
2022/06/23 00:28:22;;;;;;;10.77;2.67;;;;;;;13.77;58.30;98996.47;5045726;28;20103;-68
2022/06/23 00:30:54;;;;;;;14.57;2.25;;;;;;;13.79;58.44;98997.75;5047801;28;20420;-68
2022/06/23 00:33:23;;;;;;;9.98;2.22;;;;;;;13.73;58.79;98997.06;5045569;28;20103;-67
2022/06/23 00:35:51;;;;;;;11.98;2.53;;;;;;;13.75;58.58;98997.59;5045119;28;20048;-68
2022/06/23 00:38:26;;;;;;;8.60;2.47;;;;;;;13.73;58.70;99010.81;5047225;28;20052;-71
2022/06/23 00:40:53;;;;;;;10.38;2.55;;;;;;;13.71;58.43;99012.25;5046133;28;20394;-68
2022/06/23 00:43:20;;;;;;;10.15;2.35;;;;;;;13.66;58.56;99017.88;5045596;28;20052;-67
2022/06/23 00:45:54;;;;;;;8.68;2.67;;;;;;;13.65;58.70;99019.81;5046075;28;20049;-68
2022/06/23 00:48:24;;;;;;;7.97;2.47;;;;;;;13.61;58.80;99027.06;5045394;28;20048;-68
2022/06/23 00:50:59;;;;;;;8.10;2.63;;;;;;;13.57;58.95;99020.56;5045055;28;20051;-67
2022/06/23 00:53:30;;;;;;;7.53;2.60;;;;;;;13.57;58.89;99017.81;5047326;28;20071;-68
2022/06/23 00:56:02;;;;;;;7.40;2.35;;;;;;;13.56;59.33;99016.19;5045553;28;20045;-68
2022/06/23 00:58:37;;;;;;;9.20;2.55;;;;;;;13.59;59.34;99021.09;5046887;28;20052;-69
2022/06/23 01:01:13;;;;;;;8.05;2.60;;;;;;;13.56;59.35;99016.19;5046531;28;20535;-68
2022/06/23 01:03:46;;;;;;;10.33;2.60;;;;;;;13.52;59.39;99016.03;5047458;28;20049;-67
2022/06/23 01:06:18;;;;;;;7.60;2.40;;;;;;;13.50;59.69;99017.47;5045075;28;20527;-68
2022/06/23 01:08:49;;;;;;;15.18;2.63;;;;;;;13.46;60.07;99012.59;5046074;28;20512;-68
2022/06/23 01:11:24;;;;;;;9.30;2.80;;;;;;;13.43;60.03;99026.97;5046027;28;20512;-68
2022/06/23 01:13:59;;;;;;;8.73;2.60;;;;;;;13.43;60.39;99031.59;5045631;28;20045;-68
2022/06/23 01:16:32;;;;;;;8.60;2.60;;;;;;;13.44;60.57;99022.28;5046192;28;20382;-67
2022/06/23 01:19:15;;;;;;;8.95;2.65;;;;;;;13.44;60.30;99023.09;5048088;28;20459;-68
2022/06/23 01:21:45;;;;;;;12.27;2.67;;;;;;;13.44;60.35;99028.59;5046392;28;20049;-68
2022/06/23 01:24:25;;;;;;;7.78;2.50;;;;;;;13.45;60.21;99041.19;5047044;28;20053;-67
2022/06/23 01:27:02;;;;;;;11.75;2.70;;;;;;;13.46;60.16;99037.31;5026253;28;20041;-68
2022/06/23 01:29:33;;;;;;;10.68;3.20;;;;;;;13.52;60.36;99039.94;5049054;28;20504;-68
2022/06/23 01:32:13;;;;;;;5.85;2.30;;;;;;;13.56;60.08;99040.91;5045368;28;20140;-68
2022/06/23 01:34:47;;;;;;;9.52;2.55;;;;;;;13.58;60.20;99042.22;5040344;28;20055;-68
2022/06/23 01:37:20;;;;;;;9.85;2.42;;;;;;;13.61;59.69;99049.06;5045414;28;20091;-68
2022/06/23 01:39:52;;;;;;;7.03;2.40;;;;;;;13.59;59.82;99043.06;5044019;28;20052;-67
2022/06/23 01:42:23;;;;;;;6.88;2.38;;;;;;;13.56;59.46;99049.16;5046709;28;20056;-67
2022/06/23 01:45:00;;;;;;;10.68;3.10;;;;;;;13.64;59.80;99047.59;5042887;28;20048;-68
2022/06/23 01:47:32;;;;;;;10.80;2.28;;;;;;;13.69;59.23;99058.47;5044855;28;20064;-68
2022/06/23 01:50:20;;;;;;;10.75;2.42;;;;;;;13.70;59.37;99058.13;5043541;28;20067;-68
2022/06/23 01:52:50;;;;;;;9.68;2.50;;;;;;;13.76;59.34;99053.31;5043065;28;20045;-68
2022/06/23 01:55:21;;;;;;;14.02;2.80;;;;;;;13.78;58.97;99058.50;5058149;28;20536;-75
2022/06/23 01:57:57;;;;;;;11.45;2.15;;;;;;;13.80;58.99;99053.50;5064360;28;20071;-76
2022/06/23 02:00:25;;;;;;;11.80;2.67;;;;;;;13.82;58.98;99057.59;5058311;28;20041;-75
2022/06/23 02:02:58;;;;;;;12.18;2.20;;;;;;;13.84;59.07;99066.31;5041698;28;20087;-76
2022/06/23 02:05:40;;;;;;;8.50;2.35;;;;;;;13.90;58.81;99073.28;5045413;28;20140;-75
2022/06/23 02:08:24;;;;;;;5.38;2.05;;;;;;;13.90;58.67;99078.00;5046284;28;20053;-75
2022/06/23 02:10:58;;;;;;;10.65;2.63;;;;;;;13.97;58.54;99085.75;5042672;28;20029;-76
2022/06/23 02:13:29;;;;;;;5.97;2.28;;;;;;;14.00;58.33;99079.66;5043177;28;20049;-76
2022/06/23 02:16:02;;;;;;;9.95;2.38;;;;;;;13.99;58.48;99084.31;5039450;28;20052;-75
2022/06/23 02:18:32;;;;;;;10.50;2.50;;;;;;;14.05;58.25;99087.75;5043381;28;20049;-76
2022/06/23 02:21:14;;;;;;;6.72;2.28;;;;;;;14.08;58.38;99091.81;5028061;28;20052;-77
2022/06/23 02:23:47;;;;;;;8.43;2.63;;;;;;;14.14;58.24;99091.38;5063112;28;20052;-75
2022/06/23 02:26:19;;;;;;;12.95;2.70;;;;;;;14.17;58.05;99090.72;5064583;28;20054;-74
2022/06/23 02:28:56;;;;;;;11.73;2.40;;;;;;;14.23;58.01;99096.09;5068704;28;20060;-76
2022/06/23 02:31:31;;;;;;;9.68;2.70;;;;;;;14.25;57.71;99100.16;5045161;28;20493;-76
2022/06/23 02:34:05;;;;;;;15.05;2.60;;;;;;;14.27;57.42;99102.56;5063491;28;20048;-75
2022/06/23 02:36:54;;;;;;;7.70;2.22;;;;;;;14.29;57.78;99114.88;5062609;28;20076;-76
2022/06/23 02:39:33;;;;;;;7.18;2.13;;;;;;;14.35;57.34;99112.81;5061806;28;20098;-76
2022/06/23 02:42:03;;;;;;;11.27;2.15;;;;;;;14.44;57.36;99110.91;5063301;28;20519;-76
2022/06/23 02:44:55;;;;;;;7.78;2.20;;;;;;;14.49;56.82;99114.63;5046857;28;20052;-76
2022/06/23 02:47:33;;;;;;;13.32;2.53;;;;;;;14.53;56.70;99121.94;5044955;28;20562;-77
2022/06/23 02:50:31;;;;;;;11.57;2.50;;;;;;;14.57;56.63;99117.41;5045020;28;20581;-69
2022/06/23 02:53:15;;;;;;;7.60;2.28;;;;;;;14.41;56.68;99088.72;5060514;28;20063;-67
2022/06/23 02:56:08;;;;;;;6.35;2.28;;;;;;;14.68;56.65;99122.63;5060858;28;20143;-67
2022/06/23 02:58:43;;;;;;;7.28;2.35;;;;;;;14.76;55.92;99121.06;5063210;28;20049;-68
2022/06/23 03:01:15;;;;;;;9.15;2.20;;;;;;;14.83;55.87;99124.97;5063279;28;20044;-68
2022/06/23 03:03:49;;;;;;;6.95;2.03;;;;;;;14.89;55.80;99128.38;5059703;28;20055;-68
2022/06/23 03:06:20;;;;;;;11.65;2.25;;;;;;;14.93;55.76;99125.78;5058978;28;20163;-69
2022/06/23 03:08:51;;;;;;;9.52;2.65;;;;;;;15.02;55.22;99132.13;5054634;28;20041;-68
2022/06/23 03:11:51;;;;;;;8.80;2.35;;;;;;;15.08;55.28;99139.09;5040444;28;20174;-68
2022/06/23 03:14:15;;;;;;;13.48;2.28;;;;;;;15.19;55.05;99136.06;5045619;28;20344;-68
2022/06/23 03:16:46;;;;;;;14.00;2.88;;;;;;;15.24;54.60;99133.97;5041968;28;20511;-68
2022/06/23 03:19:19;;;;;;;11.27;2.20;;;;;;;15.31;54.06;99142.53;5043733;28;20067;-68
2022/06/23 03:21:48;;;;;;;7.53;2.22;;;;;;;15.37;54.37;99142.38;5042695;28;20057;-68
2022/06/23 03:24:24;;;;;;;8.00;2.60;;;;;;;15.38;53.98;99136.53;5036837;28;20512;-69
2022/06/23 03:26:54;;;;;;;5.30;2.28;;;;;;;15.44;54.08;99137.19;5045072;28;20055;-69
2022/06/23 03:29:24;;;;;;;6.18;2.03;;;;;;;15.51;53.74;99145.78;5042836;28;20583;-68
2022/06/23 03:32:01;;;;;;;10.80;2.53;;;;;;;15.51;53.39;99139.47;5041897;28;20045;-68
2022/06/23 03:34:33;;;;;;;10.95;2.25;;;;;;;15.63;53.19;99158.94;5038107;28;20044;-70
2022/06/23 03:37:05;;;;;;;7.00;2.20;;;;;;;15.71;53.16;99157.31;5039593;28;20467;-69
2022/06/23 03:42:25;;;;;;;7.45;2.22;;;;;;;15.83;52.51;99162.94;5042620;28;20118;-69
2022/06/23 03:44:59;;;;;;;10.27;2.28;;;;;;;15.86;52.25;99169.75;5039906;28;20053;-69
2022/06/23 03:47:31;;;;;;;11.70;2.00;;;;;;;15.91;52.21;99177.09;5043608;28;20041;-68
2022/06/23 03:50:04;;;;;;;5.90;2.10;;;;;;;15.99;52.25;99170.75;5041704;28;20551;-68
2022/06/23 03:52:36;;;;;;;7.45;2.38;;;;;;;16.07;51.87;99171.88;5017809;28;20492;-68
2022/06/23 03:55:13;;;;;;;7.13;1.90;;;;;;;16.12;51.68;99179.97;5041656;28;20102;-68
2022/06/23 03:57:46;;;;;;;9.75;2.40;;;;;;;16.20;51.50;99175.59;5045180;28;20523;-68
2022/06/23 04:00:22;;;;;;;10.60;2.35;;;;;;;16.25;51.20;99186.44;5063861;28;20110;-69
2022/06/23 04:03:03;;;;;;;9.15;2.00;;;;;;;16.28;51.08;99192.13;5048797;28;20356;-77
2022/06/23 04:06:12;;;;;;;8.82;2.25;;;;;;;16.34;51.17;99197.44;5066448;28;20551;-71
2022/06/23 04:08:45;;;;;;;8.88;1.98;;;;;;;16.41;50.65;99190.28;5065900;28;20064;-76
2022/06/23 04:14:05;;;;;;;11.27;2.20;;;;;;;16.58;50.62;99191.38;5062339;28;20087;-76
2022/06/23 04:16:33;;;;;;;9.25;2.20;;;;;;;16.59;50.40;99199.34;5067638;28;20052;-76
2022/06/23 04:19:06;;;;;;;7.40;2.10;;;;;;;16.67;50.63;99202.38;4712485;28;9999988;-76
2022/06/23 04:21:33;;;;;;;5.30;2.00;;;;;;;16.72;50.19;99200.25;5040983;28;20528;-68
2022/06/23 04:24:05;;;;;;;6.47;2.20;;;;;;;16.78;50.28;99200.88;5042265;28;20414;-69
2022/06/23 04:26:37;;;;;;;10.68;2.25;;;;;;;16.86;50.49;99204.75;5040720;28;20587;-68
2022/06/23 04:29:09;;;;;;;7.82;2.22;;;;;;;16.90;50.01;99204.91;5041563;28;20126;-69
2022/06/23 04:31:38;;;;;;;7.00;2.35;;;;;;;16.92;49.94;99206.16;5042244;28;20135;-69
2022/06/23 04:34:04;;;;;;;12.48;2.53;;;;;;;16.98;50.14;99209.56;5043750;28;20206;-69
2022/06/23 04:36:41;;;;;;;8.40;2.28;;;;;;;17.01;49.94;99212.50;5044504;28;20518;-71
2022/06/23 04:39:18;;;;;;;11.65;2.10;;;;;;;17.07;49.56;99213.13;5031649;28;20227;-67
2022/06/23 04:41:50;;;;;;;9.23;2.20;;;;;;;17.09;49.65;99202.53;5045587;28;20045;-69
2022/06/23 04:44:21;;;;;;;8.45;2.35;;;;;;;17.10;49.83;99214.41;5040940;28;20053;-68
2022/06/23 04:46:50;;;;;;;10.43;2.42;;;;;;;17.12;49.94;99217.66;5045957;28;20045;-75
2022/06/23 04:49:22;;;;;;;9.35;2.30;;;;;;;17.20;49.83;99208.50;5013233;28;20053;-76
2022/06/23 04:51:55;;;;;;;7.47;2.20;;;;;;;17.27;49.63;99216.25;5061576;28;20044;-76
2022/06/23 04:54:25;;;;;;;5.40;2.30;;;;;;;17.34;48.95;99215.72;5064389;28;20132;-77
2022/06/23 04:56:55;;;;;;;5.85;2.00;;;;;;;17.36;49.06;99216.19;5066543;28;20068;-77
2022/06/23 04:59:32;;;;;;;9.77;2.35;;;;;;;17.49;49.22;99219.88;5073317;28;20068;-76
2022/06/23 05:02:03;;;;;;;15.00;2.42;;;;;;;17.53;49.25;99224.38;5060462;28;20055;-69
2022/06/23 05:04:33;;;;;;;10.32;2.13;;;;;;;17.57;49.23;99222.56;5053022;28;20504;-70
2022/06/23 05:07:02;;;;;;;8.85;2.20;;;;;;;17.63;49.19;99214.06;5061419;28;20429;-76
2022/06/23 05:09:33;;;;;;;9.20;1.90;;;;;;;17.72;48.47;99207.31;5060499;28;20062;-77
2022/06/23 05:12:02;;;;;;;8.15;2.22;;;;;;;17.78;48.38;99223.69;5026754;28;20056;-69
2022/06/23 05:14:35;;;;;;;8.32;2.10;;;;;;;17.84;48.42;99214.06;5058374;28;20482;-69
2022/06/23 05:17:10;;;;;;;6.22;2.28;;;;;;;17.90;48.42;99215.47;5061474;28;20132;-69
2022/06/23 05:19:38;;;;;;;5.75;2.30;;;;;;;17.92;48.12;99210.41;5063795;28;20052;-69
2022/06/23 05:22:16;;;;;;;11.43;2.85;;;;;;;18.04;47.97;99212.47;5063827;28;20060;-68
2022/06/23 05:24:44;;;;;;;12.27;2.30;;;;;;;18.11;47.34;99217.47;5059143;28;20052;-68
2022/06/23 05:27:19;;;;;;;11.10;2.20;;;;;;;18.13;47.18;99213.19;5060512;28;20057;-68
2022/06/23 05:29:50;;;;;;;9.52;2.55;;;;;;;18.19;46.41;99215.75;5065601;28;20495;-68
2022/06/23 05:32:21;;;;;;;4.90;1.98;;;;;;;18.26;46.14;99216.81;5067128;28;20535;-69
2022/06/23 05:34:54;;;;;;;8.13;2.00;;;;;;;18.34;45.95;99219.81;5067297;28;20123;-69
2022/06/23 05:37:28;;;;;;;9.70;2.20;;;;;;;18.35;45.68;99221.44;5053464;28;20041;-69
2022/06/23 05:40:12;;;;;;;9.18;2.08;;;;;;;18.35;44.74;99227.78;5052488;28;20060;-69
2022/06/23 05:42:41;;;;;;;6.05;1.90;;;;;;;18.40;44.69;99229.50;5049584;28;20382;-69
2022/06/23 05:45:16;;;;;;;8.85;2.00;;;;;;;18.48;43.90;99228.63;5046306;28;20052;-69
2022/06/23 05:47:43;;;;;;;14.50;2.33;;;;;;;18.52;44.25;99234.28;5054241;28;20098;-69
2022/06/23 05:50:16;;;;;;;8.55;2.10;;;;;;;18.51;44.39;99225.16;5061950;28;20052;-67
2022/06/23 05:52:49;;;;;;;5.70;1.67;;;;;;;18.56;43.36;99233.25;5064207;28;20056;-69
2022/06/23 05:55:25;;;;;;;7.05;1.95;;;;;;;18.61;43.65;99236.97;5063567;28;20056;-69
2022/06/23 05:57:56;;;;;;;5.77;1.97;;;;;;;18.58;43.63;99232.13;5058500;28;20051;-69
2022/06/23 06:00:31;;;;;;;10.93;2.13;;;;;;;18.53;43.57;99233.94;5055561;28;20064;-67
2022/06/23 06:03:06;;;;;;;7.65;1.88;;;;;;;18.61;43.57;99240.53;5048544;28;20044;-68
2022/06/23 06:05:35;;;;;;;12.13;2.40;;;;;;;18.67;43.62;99238.34;5043773;28;20053;-68
2022/06/23 06:08:07;;;;;;;15.38;1.85;;;;;;;18.69;42.82;99239.63;5028370;28;20134;-76
2022/06/23 06:10:35;;;;;;;27.48;2.17;;;;;;;18.71;42.30;99251.16;5018807;28;20047;-76
2022/06/23 06:13:04;;;;;;;6.30;1.95;;;;;;;18.77;42.13;99243.47;5038549;28;20041;-76
2022/06/23 06:15:33;;;;;;;7.47;1.83;;;;;;;18.76;41.42;99239.06;5045964;28;20067;-67
2022/06/23 06:18:06;;;;;;;7.25;1.90;;;;;;;18.75;40.90;99240.22;5041730;28;20055;-68
2022/06/23 06:20:34;;;;;;;4.78;1.70;;;;;;;18.74;40.97;99244.16;5034220;28;20052;-68
2022/06/23 06:23:06;;;;;;;8.50;1.70;;;;;;;18.76;41.03;99249.31;5043759;28;20048;-69
2022/06/23 06:25:35;;;;;;;8.40;2.13;;;;;;;18.81;41.51;99244.38;5047332;28;20488;-68
2022/06/23 06:28:13;;;;;;;13.23;2.05;;;;;;;18.98;41.34;99251.69;5043249;28;20589;-67
2022/06/23 06:30:45;;;;;;;8.25;1.90;;;;;;;19.21;41.08;99242.13;5027337;28;20049;-68
2022/06/23 06:33:26;;;;;;;7.97;2.15;;;;;;;19.39;40.90;99237.13;5042763;28;20380;-68
2022/06/23 06:35:54;;;;;;;5.55;1.80;;;;;;;19.63;39.97;99243.81;5041682;28;20061;-69
2022/06/23 06:38:27;;;;;;;6.78;1.83;;;;;;;19.73;39.89;99245.28;5044254;28;20214;-69
2022/06/23 06:40:56;;;;;;;7.90;2.03;;;;;;;19.79;39.33;99250.25;5045910;28;20049;-69
2022/06/23 06:43:29;;;;;;;12.88;2.67;;;;;;;19.89;39.13;99251.72;5045156;28;20060;-69
2022/06/23 06:45:57;;;;;;;5.75;2.03;;;;;;;20.00;39.00;99248.50;4695695;28;9999742;-69
2022/06/23 06:48:28;;;;;;;7.10;1.90;;;;;;;20.09;38.93;99243.59;5046971;28;20080;-69
2022/06/23 06:51:00;;;;;;;15.60;2.20;;;;;;;20.18;38.73;99248.97;5041642;28;20052;-68
2022/06/23 06:53:36;;;;;;;8.35;2.15;;;;;;;20.34;38.81;99235.94;5048246;28;20131;-69
2022/06/23 06:56:11;;;;;;;6.82;2.10;;;;;;;20.40;38.68;99247.59;5016968;28;20337;-69
2022/06/23 06:58:43;;;;;;;6.20;1.95;;;;;;;20.42;38.77;99242.50;5050322;28;20134;-69
2022/06/23 07:01:15;;;;;;;10.88;2.30;;;;;;;20.49;37.84;99251.03;5049378;28;20045;-76
2022/06/23 07:03:44;;;;;;;6.72;1.90;;;;;;;20.61;37.47;99254.91;5048548;28;20446;-69
2022/06/23 07:06:17;;;;;;;4.10;1.80;;;;;;;20.75;37.13;99240.59;5059992;28;20595;-67
2022/06/23 07:08:50;;;;;;;10.23;3.30;;;;;;;20.82;37.09;99247.16;5056541;28;20512;-69
2022/06/23 07:11:21;;;;;;;10.48;2.25;;;;;;;20.94;36.40;99253.81;5054729;28;20143;-70
2022/06/23 07:13:54;;;;;;;9.27;1.85;;;;;;;21.07;35.55;99252.56;5056773;28;20129;-68
2022/06/23 07:16:23;;;;;;;8.27;1.70;;;;;;;21.16;34.97;99257.09;5052004;28;20048;-69
2022/06/23 07:18:58;;;;;;;6.38;2.03;;;;;;;21.21;34.67;99257.66;5059481;28;20045;-67
2022/06/23 07:21:32;;;;;;;7.30;1.80;;;;;;;21.32;34.57;99268.22;5053122;28;20055;-68
2022/06/23 07:24:11;;;;;;;6.45;1.90;;;;;;;21.41;34.75;99257.69;5044268;28;20067;-68
2022/06/23 07:26:45;;;;;;;6.18;1.98;;;;;;;21.41;34.95;99262.47;5053753;28;20094;-69
2022/06/23 07:29:22;;;;;;;8.20;1.90;;;;;;;21.43;34.92;99272.03;5053704;28;20159;-69
2022/06/23 07:31:52;;;;;;;;;;;;;;;21.58;34.65;99272.38;5047410;28;20131;-69
2022/06/23 07:34:20;;;;;;;6.43;2.42;;;;;;;21.76;34.44;99268.03;5050230;28;19935;-68
2022/06/23 07:36:52;;;;;;;7.53;1.80;;;;;;;21.91;34.13;99269.19;5050993;28;20048;-76
2022/06/23 07:39:23;;;;;;;6.30;1.90;;;;;;;22.05;33.93;99270.66;5053697;28;20139;-77
2022/06/23 07:41:58;;;;;;;47.55;6.70;;;;;;;22.07;34.54;99279.44;5054086;28;20102;-76
2022/06/23 07:44:30;;;;;;;12.90;2.00;;;;;;;22.15;34.38;99283.19;5057796;28;20464;-76
2022/06/23 07:46:56;;;;;;;148.13;16.13;;;;;;;22.18;34.19;99263.78;5057906;28;20140;-76
2022/06/23 07:49:25;;;;;;;54.08;3.95;;;;;;;22.11;34.16;99266.41;5056617;28;20056;-76
2022/06/23 07:51:53;;;;;;;9.40;2.20;;;;;;;22.09;34.80;99277.09;5048829;28;20052;-77
2022/06/23 07:54:21;;;;;;;8.27;2.10;;;;;;;22.02;34.65;99280.53;5057291;28;20040;-76
2022/06/23 07:56:49;;;;;;;8.45;1.92;;;;;;;22.05;34.85;99268.66;5020994;28;20055;-69
2022/06/23 07:59:19;;;;;;;12.85;2.17;;;;;;;22.20;34.55;99277.31;5054405;28;20090;-69
2022/06/23 08:01:51;;;;;;;5.88;2.08;;;;;;;22.42;34.35;99280.53;5049658;28;20051;-76
2022/06/23 08:04:23;;;;;;;12.05;2.05;;;;;;;22.67;34.34;99278.25;5049909;28;20056;-76
2022/06/23 08:06:50;;;;;;;8.10;2.10;;;;;;;22.96;33.74;99262.03;5053148;28;20043;-76
2022/06/23 08:09:28;;;;;;;9.75;2.03;;;;;;;23.27;33.74;99273.31;5056802;28;20059;-76
2022/06/23 08:14:48;;;;;;;6.38;1.92;;;;;;;23.48;32.88;99268.06;5054670;28;20056;-69
2022/06/23 08:17:17;;;;;;;12.63;3.05;;;;;;;23.61;32.42;99265.88;5057888;28;20053;-69
2022/06/23 08:19:48;;;;;;;8.45;2.65;;;;;;;23.85;31.76;99258.19;5058155;28;20045;-69
2022/06/23 08:22:17;;;;;;;8.02;2.15;;;;;;;23.99;31.93;99271.56;5054136;28;20082;-68
2022/06/23 08:24:48;;;;;;;10.10;1.95;;;;;;;24.40;31.46;99284.84;5051634;28;20147;-76
2022/06/23 08:27:20;;;;;;;6.43;2.10;;;;;;;24.61;31.04;99275.91;5049423;28;20222;-77
2022/06/23 08:29:49;;;;;;;7.63;2.40;;;;;;;24.76;30.91;99282.44;5059530;28;20072;-76
2022/06/23 08:32:16;;;;;;;7.60;2.22;;;;;;;25.20;29.93;99280.03;5059383;28;20048;-70
2022/06/23 08:34:51;;;;;;;7.82;2.00;;;;;;;25.34;29.43;99282.13;5062979;28;20578;-68
2022/06/23 08:37:20;;;;;;;9.77;1.95;;;;;;;25.52;29.30;99289.88;5053972;28;20048;-69
2022/06/23 08:39:54;;;;;;;8.30;2.17;;;;;;;25.59;28.47;99296.31;5063385;28;20051;-68
2022/06/23 08:42:27;;;;;;;6.43;2.30;;;;;;;25.81;27.60;99299.28;5055159;28;20048;-69
2022/06/23 08:45:05;;;;;;;9.63;1.95;;;;;;;26.12;26.84;99297.03;5063252;28;20060;-75
2022/06/23 08:47:51;;;;;;;7.18;2.17;;;;;;;26.39;26.54;99288.38;5057941;28;20053;-76
2022/06/23 08:50:23;;;;;;;8.40;2.20;;;;;;;26.63;26.17;99300.03;5055228;28;20131;-77
2022/06/23 08:52:56;;;;;;;6.53;2.10;;;;;;;27.03;25.74;99294.50;5061025;28;20044;-75
2022/06/23 08:55:29;;;;;;;7.80;2.22;;;;;;;27.35;25.14;99290.13;5024968;28;20621;-75
2022/06/23 08:58:02;;;;;;;8.43;2.03;;;;;;;27.56;24.95;99289.31;5024368;28;20044;-74
2022/06/23 09:00:34;;;;;;;5.72;2.03;;;;;;;27.90;24.27;99286.03;5056206;28;20140;-77
2022/06/23 09:03:09;;;;;;;30.67;4.90;;;;;;;28.12;24.04;99281.13;5057579;28;20048;-70
2022/06/23 09:05:43;;;;;;;22.33;3.00;;;;;;;28.20;23.97;99283.94;5055084;28;20124;-68
2022/06/23 09:08:17;;;;;;;32.13;4.20;;;;;;;28.51;23.58;99287.81;5059427;28;20074;-68
2022/06/23 09:10:53;;;;;;;9.80;2.70;;;;;;;28.80;23.87;99273.59;5057255;28;20045;-70
2022/06/23 09:13:37;;;;;;;12.25;2.35;;;;;;;29.10;23.18;99279.78;5055706;28;20036;-70
2022/06/23 09:16:23;;;;;;;7.45;1.98;;;;;;;28.84;23.37;99279.16;5060037;28;20435;-69
2022/06/23 09:19:22;;;;;;;14.15;2.25;;;;;;;28.58;23.98;99301.03;5034238;28;20361;-76
2022/06/23 09:22:11;;;;;;;7.60;2.10;;;;;;;29.09;23.29;99307.13;5053991;28;20049;-69
2022/06/23 09:24:55;;;;;;;7.60;2.42;;;;;;;29.23;23.43;99302.59;5044921;28;20064;-68
2022/06/23 09:27:47;;;;;;;6.63;2.15;;;;;;;29.17;23.10;99287.38;5056463;28;20048;-69
2022/06/23 09:30:19;;;;;;;9.32;2.33;;;;;;;29.05;23.56;99297.91;5060488;28;20518;-67
2022/06/23 09:32:58;;;;;;;9.85;2.45;;;;;;;29.34;22.75;99305.31;5057971;28;20095;-68
2022/06/23 09:35:45;;;;;;;7.78;2.60;;;;;;;29.54;22.38;99302.75;5033929;28;20058;-68
2022/06/23 09:38:34;;;;;;;6.38;2.40;;;;;;;30.14;22.31;99311.78;5052081;28;20183;-77
2022/06/23 09:41:13;;;;;;;9.50;2.38;;;;;;;30.67;21.55;99308.69;5058058;28;20044;-75
2022/06/23 09:44:08;;;;;;;7.47;2.40;;;;;;;31.13;21.37;99314.06;5056813;28;20578;-75
2022/06/23 09:46:54;;;;;;;7.72;2.58;;;;;;;31.50;21.01;99303.00;5054869;28;20514;-76
2022/06/23 09:49:34;;;;;;;7.17;2.47;;;;;;;31.18;21.68;99312.78;5061201;28;20055;-69
2022/06/23 09:52:21;;;;;;;11.23;2.70;;;;;;;31.20;21.55;99315.97;5054436;28;20434;-75
2022/06/23 09:55:24;;;;;;;8.15;2.58;;;;;;;31.32;21.60;99312.56;5054174;28;20056;-76
2022/06/23 09:58:13;;;;;;;9.85;2.60;;;;;;;31.64;21.45;99318.88;5051727;28;20047;-69
2022/06/23 10:00:50;;;;;;;10.43;2.88;;;;;;;31.96;20.67;99311.84;5059499;28;20049;-69
2022/06/23 10:03:35;;;;;;;8.73;2.55;;;;;;;32.35;19.88;99313.09;5059249;28;20044;-69
2022/06/23 10:06:28;;;;;;;8.37;2.77;;;;;;;32.28;20.25;99301.91;5056976;28;20044;-69
2022/06/23 10:09:04;;;;;;;12.23;2.50;;;;;;;31.97;19.83;99319.88;5053946;28;20367;-69
2022/06/23 10:12:05;;;;;;;10.27;2.83;;;;;;;32.10;20.35;99327.72;5058940;28;20044;-68
2022/06/23 10:15:02;;;;;;;18.50;2.88;;;;;;;32.25;19.60;99323.38;5067244;28;20048;-69
2022/06/23 10:17:54;;;;;;;8.18;2.45;;;;;;;32.08;19.93;99314.00;5061261;28;20056;-75
2022/06/23 10:20:43;;;;;;;6.13;2.35;;;;;;;32.14;19.26;99311.47;5022054;28;20635;-76
2022/06/23 10:23:26;;;;;;;7.00;2.55;;;;;;;32.45;19.38;99305.59;5055595;28;20558;-68
2022/06/23 10:26:17;;;;;;;6.90;2.50;;;;;;;32.36;19.51;99317.50;5054850;28;20040;-68
2022/06/23 10:29:22;;;;;;;10.45;2.50;;;;;;;32.68;19.38;99315.19;5057642;28;20069;-68
2022/06/23 10:32:15;;;;;;;10.83;2.87;;;;;;;32.85;19.29;99321.69;5035893;28;20068;-69
2022/06/23 10:34:57;;;;;;;11.07;2.85;;;;;;;33.09;18.92;99322.34;5046591;28;20427;-69
2022/06/23 10:37:32;;;;;;;10.48;3.15;;;;;;;33.04;18.66;99320.06;5060328;28;20419;-68
2022/06/23 10:40:25;;;;;;;9.00;2.80;;;;;;;33.08;18.52;99305.81;5062348;28;20439;-75
2022/06/23 10:43:11;;;;;;;54.53;7.15;;;;;;;32.74;18.78;99321.13;5042549;28;20666;-75
2022/06/23 10:45:42;;;;;;;;;;;;;;;33.05;18.54;99318.81;5061913;28;20056;-75
2022/06/23 10:48:40;;;;;;;26.48;4.78;;;;;;;33.39;18.10;99325.25;5058830;28;20461;-74
2022/06/23 10:51:18;;;;;;;12.40;3.22;;;;;;;33.63;17.80;99317.38;5048777;28;20060;-74
2022/06/23 10:54:12;;;;;;;11.02;3.10;;;;;;;33.66;18.17;99313.66;5061261;28;20049;-76
2022/06/23 10:57:17;;;;;;;9.63;2.95;;;;;;;33.68;18.07;99318.88;5058557;28;20660;-75
2022/06/23 11:00:01;;;;;;;7.35;2.88;;;;;;;33.79;18.19;99319.38;5023062;28;20666;-75
2022/06/23 11:03:00;;;;;;;9.55;3.20;;;;;;;34.38;17.64;99323.44;5060504;28;20205;-70
2022/06/23 11:05:44;;;;;;;8.68;2.90;;;;;;;34.69;17.44;99314.44;5061349;28;20415;-70
2022/06/23 11:08:28;;;;;;;8.57;3.10;;;;;;;34.78;17.31;99309.66;5058263;28;20138;-71
2022/06/23 11:11:09;;;;;;;9.82;3.20;;;;;;;34.80;16.90;99326.22;5042626;28;20484;-70
2022/06/23 11:13:54;;;;;;;14.20;3.00;;;;;;;34.73;16.76;99324.41;5056047;28;20044;-70
2022/06/23 11:16:32;;;;;;;9.50;3.15;;;;;;;34.94;16.38;99333.50;5061461;28;20048;-68
2022/06/23 11:19:12;;;;;;;11.98;3.35;;;;;;;35.60;15.99;99327.31;5054979;28;20049;-69
2022/06/23 11:21:49;;;;;;;9.35;3.20;;;;;;;35.77;15.99;99327.94;5051498;28;20044;-70
2022/06/23 11:24:27;;;;;;;7.75;3.17;;;;;;;35.71;16.64;99321.22;5057607;28;20059;-69
2022/06/23 11:27:04;;;;;;;6.80;3.00;;;;;;;36.00;15.90;99323.03;5058771;28;20064;-69
2022/06/23 11:30:03;;;;;;;13.80;3.40;;;;;;;36.08;15.81;99283.78;5059118;28;20495;-69
2022/06/23 11:32:40;;;;;;;8.32;3.17;;;;;;;36.43;15.30;99323.50;5060981;28;20045;-75
2022/06/23 11:35:18;;;;;;;;;;;;;;;36.02;15.50;99314.06;5062113;28;20044;-73
2022/06/23 11:38:06;;;;;;;12.75;3.10;;;;;;;35.74;16.15;99330.91;5058986;28;20276;-75
2022/06/23 11:41:05;;;;;;;12.38;3.30;;;;;;;36.12;15.63;99324.25;5061032;28;20079;-74
2022/06/23 11:43:47;;;;;;;9.48;3.33;;;;;;;36.17;15.46;99328.56;5061957;28;20052;-75
2022/06/23 11:46:23;;;;;;;12.05;3.22;;;;;;;36.13;15.60;99313.69;5045326;28;20098;-74
2022/06/23 11:49:07;;;;;;;13.10;3.10;;;;;;;36.28;15.16;99316.78;5062445;28;20082;-76
2022/06/23 11:51:50;;;;;;;7.88;3.13;;;;;;;36.46;15.16;99321.78;5057091;28;20299;-73
2022/06/23 11:54:29;;;;;;;10.27;3.45;;;;;;;36.41;15.30;99323.16;5033296;28;20135;-76
2022/06/23 11:57:14;;;;;;;10.55;3.72;;;;;;;36.61;14.87;99325.69;5038905;28;20045;-74
2022/06/23 11:59:54;;;;;;;11.25;3.20;;;;;;;37.09;15.12;99318.16;5061833;28;20052;-74
2022/06/23 12:02:20;;;;;;;10.90;3.50;;;;;;;37.51;13.98;99313.97;5058936;28;20404;-75
2022/06/23 12:05:06;;;;;;;12.10;3.42;;;;;;;37.40;14.25;99323.75;5059666;28;20122;-68
2022/06/23 12:07:48;;;;;;;8.03;3.47;;;;;;;37.55;14.04;99329.66;5056364;28;20056;-69
2022/06/23 12:10:16;;;;;;;17.00;3.50;;;;;;;37.48;13.88;99327.06;5061669;28;20393;-70
2022/06/23 12:12:46;;;;;;;11.07;3.40;;;;;;;37.26;14.07;99330.84;5042153;28;20401;-70
2022/06/23 12:15:15;;;;;;;15.88;3.90;;;;;;;37.34;14.25;99334.19;5063013;28;20057;-69
2022/06/23 12:17:45;;;;;;;12.27;3.63;;;;;;;37.68;13.92;99335.19;5050220;28;20052;-67
2022/06/23 12:20:20;;;;;;;9.27;3.58;;;;;;;38.09;13.78;99325.69;5060112;28;20040;-69